createdAt,value
2022-11-23T00:01:26.293Z,17.73
2022-11-23T00:03:55.238Z,18.10
2022-11-23T00:06:23.523Z,17.70
2022-11-23T00:08:51.015Z,17.13
2022-11-23T00:11:19.754Z,18.15
2022-11-23T00:13:46.461Z,17.35
2022-11-23T00:16:21.623Z,19.70
2022-11-23T00:18:48.629Z,18.75
2022-11-23T00:23:43.953Z,18.20
2022-11-23T00:26:11.636Z,17.65
2022-11-23T00:28:40.646Z,18.92
2022-11-23T00:31:08.351Z,18.27
2022-11-23T00:33:35.105Z,19.17
2022-11-23T00:36:04.069Z,18.40
2022-11-23T00:38:31.153Z,18.97
2022-11-23T00:43:25.328Z,17.35
2022-11-23T00:46:03.066Z,18.90
2022-11-23T00:48:30.107Z,18.10
2022-11-23T00:55:54.287Z,16.40
2022-11-23T00:58:21.507Z,19.00
2022-11-23T01:00:48.578Z,18.50
2022-11-23T01:05:42.684Z,16.58
2022-11-23T01:10:35.756Z,17.88
2022-11-23T01:13:02.367Z,17.77
2022-11-23T01:15:28.910Z,17.45
2022-11-23T01:17:55.479Z,16.90
2022-11-23T01:20:21.986Z,18.15
2022-11-23T01:22:48.522Z,18.08
2022-11-23T01:25:15.113Z,17.35
2022-11-23T01:27:41.795Z,17.25
2022-11-23T01:30:08.975Z,18.08
2022-11-23T01:32:35.549Z,18.83
2022-11-23T01:35:02.083Z,16.88
2022-11-23T01:37:28.650Z,17.23
2022-11-23T01:39:55.201Z,17.50
2022-11-23T01:42:21.737Z,16.60
2022-11-23T01:44:48.356Z,17.02
2022-11-23T01:47:14.902Z,16.40
2022-11-23T01:49:46.494Z,16.52
2022-11-23T01:52:20.258Z,15.48
2022-11-23T01:54:50.451Z,15.32
2022-11-23T01:57:25.075Z,15.73
2022-11-23T01:59:53.240Z,16.25
2022-11-23T02:02:19.894Z,16.05
2022-11-23T02:04:49.258Z,16.17
2022-11-23T02:07:18.822Z,15.75
2022-11-23T02:09:46.848Z,15.50
2022-11-23T02:12:14.767Z,14.30
2022-11-23T02:14:42.278Z,15.80
2022-11-23T02:17:09.277Z,16.65
2022-11-23T02:22:02.751Z,16.15
2022-11-23T02:27:02.053Z,15.73
2022-11-23T02:29:29.848Z,15.82
2022-11-23T02:31:56.805Z,16.23
2022-11-23T02:34:23.368Z,16.10
2022-11-23T02:36:52.858Z,11.98
2022-11-23T02:39:27.539Z,16.40
2022-11-23T02:41:55.946Z,16.23
2022-11-23T02:44:50.662Z,15.98
2022-11-23T02:47:17.449Z,16.73
2022-11-23T02:49:47.698Z,16.52
2022-11-23T02:52:14.559Z,17.15
2022-11-23T02:54:41.161Z,17.33
2022-11-23T02:57:08.498Z,17.65
2022-11-23T02:59:35.360Z,16.63
2022-11-23T03:02:03.431Z,16.42
2022-11-23T03:04:30.157Z,15.05
2022-11-23T03:06:57.167Z,14.88
2022-11-23T03:11:53.533Z,17.23
2022-11-23T03:14:20.850Z,16.80
2022-11-23T03:16:47.446Z,16.58
2022-11-23T03:19:14.071Z,18.30
2022-11-23T03:21:40.621Z,17.92
2022-11-23T03:24:07.154Z,16.90
2022-11-23T03:26:33.746Z,17.65
2022-11-23T03:29:00.251Z,17.98
2022-11-23T03:31:27.052Z,17.98
2022-11-23T03:33:53.592Z,19.80
2022-11-23T03:36:20.171Z,16.98
2022-11-23T03:38:46.737Z,14.48
2022-11-23T03:41:13.351Z,18.63
2022-11-23T03:43:39.915Z,16.40
2022-11-23T03:46:06.507Z,16.73
2022-11-23T03:48:33.036Z,16.13
2022-11-23T03:50:59.547Z,17.10
2022-11-23T03:53:26.463Z,17.02
2022-11-23T03:58:22.082Z,17.65
2022-11-23T04:00:48.621Z,17.92
2022-11-23T04:03:15.358Z,16.30
2022-11-23T04:05:41.862Z,17.23
2022-11-23T04:08:09.552Z,16.50
2022-11-23T04:10:36.064Z,17.02
2022-11-23T04:13:02.876Z,16.38
2022-11-23T04:15:29.475Z,16.75
2022-11-23T04:17:56.154Z,16.50
2022-11-23T04:20:22.687Z,16.48
2022-11-23T04:22:49.274Z,17.33
2022-11-23T04:25:15.807Z,17.30
2022-11-23T04:27:42.441Z,17.02
2022-11-23T04:30:09.873Z,17.35
2022-11-23T04:32:36.418Z,16.92
2022-11-23T04:35:03.157Z,16.55
2022-11-23T04:37:29.777Z,17.52
2022-11-23T04:39:56.317Z,16.90
2022-11-23T04:42:22.926Z,16.95
2022-11-23T04:44:49.491Z,18.38
2022-11-23T04:47:16.124Z,18.05
2022-11-23T04:49:42.649Z,16.75
2022-11-23T04:52:09.167Z,18.30
2022-11-23T04:54:35.723Z,16.85
2022-11-23T04:57:02.254Z,17.92
2022-11-23T04:59:29.041Z,18.83
2022-11-23T05:04:22.181Z,17.17
2022-11-23T05:06:48.804Z,18.67
2022-11-23T05:09:15.705Z,17.67
2022-11-23T05:11:42.339Z,18.80
2022-11-23T05:14:08.970Z,17.98
2022-11-23T05:16:35.644Z,17.88
2022-11-23T05:19:02.527Z,17.45
2022-11-23T05:21:29.162Z,17.15
2022-11-23T05:23:55.782Z,18.08
2022-11-23T05:26:22.398Z,18.00
2022-11-23T05:28:49.145Z,17.58
2022-11-23T05:31:15.718Z,17.80
2022-11-23T05:33:42.254Z,17.27
2022-11-23T05:36:09.359Z,19.55
2022-11-23T05:38:35.911Z,18.97
2022-11-23T05:41:02.438Z,19.55
2022-11-23T05:43:29.008Z,18.50
2022-11-23T05:45:59.052Z,18.95
2022-11-23T05:48:25.701Z,17.77
2022-11-23T05:50:52.388Z,19.73
2022-11-23T05:53:19.308Z,17.67
2022-11-23T05:55:46.238Z,17.70
2022-11-23T05:58:13.035Z,18.20
2022-11-23T06:00:39.555Z,19.40
2022-11-23T06:03:06.062Z,17.67
2022-11-23T06:05:32.988Z,19.38
2022-11-23T06:10:26.020Z,17.77
2022-11-23T06:12:52.846Z,14.10
2022-11-23T06:15:19.555Z,17.98
2022-11-23T06:17:46.081Z,18.52
2022-11-23T06:20:12.769Z,19.23
2022-11-23T06:22:39.573Z,17.92
2022-11-23T06:25:06.596Z,18.08
2022-11-23T06:29:59.527Z,18.08
2022-11-23T06:32:26.046Z,20.00
2022-11-23T06:34:53.885Z,19.27
2022-11-23T06:37:23.605Z,19.27
2022-11-23T06:39:50.083Z,18.33
2022-11-23T06:42:37.761Z,18.85
2022-11-23T06:45:03.743Z,19.33
2022-11-23T06:47:30.277Z,18.45
2022-11-23T06:49:56.747Z,17.67
2022-11-23T06:52:23.277Z,19.83
2022-11-23T06:54:49.768Z,19.25
2022-11-23T06:57:16.344Z,18.45
2022-11-23T06:59:45.048Z,19.40
2022-11-23T07:02:12.517Z,18.50
2022-11-23T07:04:39.109Z,19.17
2022-11-23T07:07:07.799Z,18.42
2022-11-23T07:09:35.054Z,17.95
2022-11-23T07:12:01.791Z,17.15
2022-11-23T07:14:28.355Z,17.10
2022-11-23T07:16:54.921Z,17.77
2022-11-23T07:19:21.394Z,17.48
2022-11-23T07:21:47.955Z,17.45
2022-11-23T07:24:14.477Z,17.45
2022-11-23T07:26:41.041Z,16.88
2022-11-23T07:29:07.598Z,15.75
2022-11-23T07:31:34.080Z,16.45
2022-11-23T07:34:00.549Z,17.77
2022-11-23T07:36:27.053Z,19.25
2022-11-23T07:38:53.582Z,18.20
2022-11-23T07:41:20.100Z,18.25
2022-11-23T07:43:46.663Z,18.75
2022-11-23T07:46:13.283Z,17.35
2022-11-23T07:48:39.847Z,17.50
2022-11-23T07:51:06.370Z,14.00
2022-11-23T07:53:32.881Z,19.30
2022-11-23T07:55:59.460Z,13.65
2022-11-23T07:58:26.237Z,17.70
2022-11-23T08:00:52.815Z,18.10
2022-11-23T08:03:27.730Z,18.63
2022-11-23T08:05:54.957Z,18.13
2022-11-23T08:08:21.510Z,16.88
2022-11-23T08:10:53.005Z,16.92
2022-11-23T08:13:20.410Z,16.90
2022-11-23T08:15:53.251Z,16.52
2022-11-23T08:18:20.910Z,15.40
2022-11-23T08:20:47.478Z,18.15
2022-11-23T08:23:14.037Z,18.55
2022-11-23T08:25:40.586Z,18.00
2022-11-23T08:28:07.161Z,13.07
2022-11-23T08:30:34.431Z,18.27
2022-11-23T08:33:08.065Z,18.37
2022-11-23T08:35:36.529Z,18.50
2022-11-23T08:38:04.527Z,19.70
2022-11-23T08:40:31.156Z,19.23
2022-11-23T08:42:57.706Z,18.75
2022-11-23T08:45:24.241Z,18.35
2022-11-23T08:47:51.192Z,18.40
2022-11-23T08:50:18.032Z,18.48
2022-11-23T08:52:44.576Z,17.65
2022-11-23T08:55:11.652Z,18.25
2022-11-23T09:00:06.087Z,15.90
2022-11-23T09:02:33.032Z,16.95
2022-11-23T09:05:00.696Z,19.38
2022-11-23T09:07:27.313Z,16.50
2022-11-23T09:09:53.917Z,17.02
2022-11-23T09:12:20.408Z,16.70
2022-11-23T09:14:46.959Z,19.00
2022-11-23T09:17:13.481Z,17.77
2022-11-23T09:19:39.930Z,18.13
2022-11-23T09:22:06.450Z,18.90
2022-11-23T09:24:34.410Z,17.35
2022-11-23T09:29:28.170Z,17.70
2022-11-23T09:31:54.753Z,17.05
2022-11-23T09:34:21.269Z,18.85
2022-11-23T09:36:48.100Z,17.48
2022-11-23T09:39:14.820Z,17.50
2022-11-23T09:41:41.255Z,17.60
2022-11-23T09:44:52.234Z,17.67
2022-11-23T09:47:51.583Z,17.25
2022-11-23T09:50:28.337Z,17.48
2022-11-23T09:52:54.909Z,16.60
2022-11-23T09:55:41.789Z,17.27
2022-11-23T09:58:14.086Z,18.73
2022-11-23T10:00:48.814Z,17.40
2022-11-23T10:03:17.586Z,17.30
2022-11-23T10:05:53.948Z,18.02
2022-11-23T10:08:51.366Z,17.13
2022-11-23T10:11:23.657Z,17.77
2022-11-23T10:14:28.398Z,17.25
2022-11-23T10:17:34.000Z,16.40
2022-11-23T10:20:25.243Z,17.92
2022-11-23T10:22:58.700Z,16.77
2022-11-23T10:25:29.186Z,16.70
2022-11-23T10:28:03.039Z,15.27
2022-11-23T10:30:29.572Z,15.25
2022-11-23T10:33:11.014Z,15.90
2022-11-23T10:35:38.462Z,15.18
2022-11-23T10:38:19.084Z,14.52
2022-11-23T10:41:08.838Z,17.27
2022-11-23T10:43:41.663Z,15.60
2022-11-23T10:46:23.708Z,16.33
2022-11-23T10:48:51.666Z,14.02
2022-11-23T10:51:31.795Z,13.68
2022-11-23T10:54:23.409Z,14.30
2022-11-23T10:56:51.861Z,12.98
2022-11-23T10:59:38.924Z,12.85
2022-11-23T11:02:05.395Z,13.35
2022-11-23T11:04:32.074Z,12.70
2022-11-23T11:07:31.557Z,11.90
2022-11-23T11:10:04.097Z,11.05
2022-11-23T11:12:34.580Z,11.38
2022-11-23T11:15:12.228Z,10.48
2022-11-23T11:17:41.039Z,10.00
2022-11-23T11:20:31.549Z,11.02
2022-11-23T11:23:17.573Z,10.73
2022-11-23T11:25:44.651Z,9.65
2022-11-23T11:31:44.461Z,8.50
2022-11-23T11:34:23.793Z,10.27
2022-11-23T11:37:02.317Z,10.38
2022-11-23T11:39:38.116Z,9.75
2022-11-23T11:42:08.991Z,10.27
2022-11-23T11:44:39.831Z,9.90
2022-11-23T11:47:24.677Z,9.70
2022-11-23T11:49:55.100Z,8.95
2022-11-23T11:52:37.333Z,8.43
2022-11-23T11:55:22.610Z,9.07
2022-11-23T11:57:55.035Z,9.25
2022-11-23T12:00:21.811Z,9.00
2022-11-23T12:03:19.423Z,10.25
2022-11-23T12:05:52.269Z,9.38
2022-11-23T12:08:32.134Z,8.48
2022-11-23T12:11:02.136Z,9.27
2022-11-23T12:13:38.697Z,9.32
2022-11-23T12:16:05.162Z,10.35
2022-11-23T12:18:34.432Z,9.07
2022-11-23T12:21:19.334Z,9.57
2022-11-23T12:24:01.782Z,9.68
2022-11-23T12:26:43.284Z,9.93
2022-11-23T12:29:16.562Z,10.68
2022-11-23T12:31:49.111Z,9.80
2022-11-23T12:34:44.509Z,10.35
2022-11-23T12:37:11.500Z,9.73
2022-11-23T12:42:34.798Z,10.35
2022-11-23T12:45:17.475Z,11.30
2022-11-23T12:48:08.290Z,9.52
2022-11-23T12:50:37.773Z,11.02
2022-11-23T12:53:43.299Z,11.23
2022-11-23T12:56:15.651Z,11.95
2022-11-23T12:58:44.546Z,11.68
2022-11-23T13:01:32.488Z,13.25
2022-11-23T13:04:32.811Z,14.45
2022-11-23T13:07:30.308Z,14.02
2022-11-23T13:10:48.049Z,15.32
2022-11-23T13:13:22.630Z,15.00
2022-11-23T13:16:19.936Z,14.60
2022-11-23T13:19:14.826Z,14.90
2022-11-23T13:21:44.655Z,15.10
2022-11-23T13:24:33.686Z,14.15
2022-11-23T13:27:15.681Z,14.05
2022-11-23T13:29:51.295Z,13.95
2022-11-23T13:32:39.416Z,14.38
2022-11-23T13:35:21.215Z,14.57
2022-11-23T13:37:56.917Z,12.70
2022-11-23T13:40:26.522Z,13.82
2022-11-23T13:42:57.656Z,14.63
2022-11-23T13:45:28.394Z,13.98
2022-11-23T13:48:34.353Z,14.63
2022-11-23T13:51:01.467Z,14.00
2022-11-23T13:53:39.690Z,12.90
2022-11-23T13:56:44.881Z,14.23
2022-11-23T13:59:23.680Z,15.00
2022-11-23T14:02:22.263Z,15.10
2022-11-23T14:04:49.462Z,15.48
2022-11-23T14:07:18.797Z,16.00
2022-11-23T14:09:51.541Z,16.50
2022-11-23T14:12:46.682Z,15.60
2022-11-23T14:15:25.497Z,14.43
2022-11-23T14:18:13.769Z,16.80
2022-11-23T14:20:52.315Z,17.40
2022-11-23T14:23:46.521Z,15.32
2022-11-23T14:26:34.183Z,18.10
2022-11-23T14:29:06.373Z,17.85
2022-11-23T14:31:42.569Z,17.15
2022-11-23T14:34:25.904Z,17.23
2022-11-23T14:37:23.475Z,17.05
2022-11-23T14:39:59.769Z,16.85
2022-11-23T14:42:29.393Z,15.48
2022-11-23T14:45:01.689Z,15.90
2022-11-23T14:47:30.370Z,16.10
2022-11-23T14:49:57.417Z,16.67
2022-11-23T14:54:57.898Z,16.63
2022-11-23T14:57:36.224Z,16.83
2022-11-23T15:00:07.169Z,16.85
2022-11-23T15:02:41.266Z,17.42
2022-11-23T15:05:16.751Z,16.45
2022-11-23T15:07:52.487Z,19.50
2022-11-23T15:10:24.854Z,16.95
2022-11-23T15:12:51.426Z,17.08
2022-11-23T15:15:26.283Z,18.73
2022-11-23T15:18:01.431Z,17.13
2022-11-23T15:20:40.868Z,15.30
2022-11-23T15:23:16.559Z,16.88
2022-11-23T15:25:53.709Z,16.92
2022-11-23T15:28:28.781Z,16.35
2022-11-23T15:30:58.610Z,16.35
2022-11-23T15:33:26.215Z,17.98
2022-11-23T15:35:54.691Z,17.23
2022-11-23T15:38:23.906Z,16.80
2022-11-23T15:40:51.476Z,16.33
2022-11-23T15:43:19.921Z,16.00
2022-11-23T15:45:46.559Z,16.48
2022-11-23T15:48:14.903Z,17.70
2022-11-23T15:50:59.556Z,16.45
2022-11-23T15:53:32.481Z,16.40
2022-11-23T15:56:05.548Z,15.57
2022-11-23T15:58:33.979Z,17.73
2022-11-23T16:01:12.509Z,17.63
2022-11-23T16:04:01.084Z,17.23
2022-11-23T16:06:40.869Z,17.45
2022-11-23T16:12:25.758Z,18.20
2022-11-23T16:14:54.427Z,19.02
2022-11-23T16:17:29.458Z,18.98
2022-11-23T16:20:03.949Z,18.88
2022-11-23T16:22:37.875Z,18.27
2022-11-23T16:25:18.055Z,19.10
2022-11-23T16:27:44.695Z,19.15
2022-11-23T16:30:25.631Z,18.67
2022-11-23T16:32:52.494Z,19.35
2022-11-23T16:35:20.768Z,18.42
2022-11-23T16:37:47.410Z,18.73
2022-11-23T16:40:14.659Z,18.83
2022-11-23T16:42:43.301Z,16.17
2022-11-23T16:45:10.746Z,17.77
2022-11-23T16:47:51.874Z,17.73
2022-11-23T16:50:18.677Z,18.00
2022-11-23T16:52:45.242Z,17.05
2022-11-23T16:55:11.740Z,19.15
2022-11-23T16:57:38.911Z,14.18
2022-11-23T17:00:36.098Z,18.98
2022-11-23T17:03:02.751Z,17.73
2022-11-23T17:05:29.267Z,17.52
2022-11-23T17:07:55.877Z,18.95
2022-11-23T17:10:22.574Z,20.58
2022-11-23T17:12:55.107Z,18.25
2022-11-23T17:15:23.336Z,17.92
2022-11-23T17:17:50.250Z,19.33
2022-11-23T17:20:18.005Z,17.17
2022-11-23T17:22:45.044Z,20.70
2022-11-23T17:27:42.339Z,18.02
2022-11-23T17:32:47.848Z,18.20
2022-11-23T17:35:15.021Z,20.65
2022-11-23T17:37:42.158Z,19.80
2022-11-23T17:40:19.985Z,19.10
2022-11-23T17:42:47.451Z,19.88
2022-11-23T17:45:14.625Z,19.70
2022-11-23T17:47:44.136Z,21.30
2022-11-23T17:50:17.561Z,21.33
2022-11-23T17:52:45.549Z,21.42
2022-11-23T17:55:13.071Z,21.75
2022-11-23T17:57:40.450Z,20.40
2022-11-23T18:00:23.117Z,21.25
2022-11-23T18:02:50.009Z,22.05
2022-11-23T18:05:21.530Z,21.70
2022-11-23T18:07:49.351Z,21.77
2022-11-23T18:10:16.354Z,21.45
2022-11-23T18:12:44.689Z,20.63
2022-11-23T18:15:12.122Z,19.88
2022-11-23T18:17:38.776Z,20.88
2022-11-23T18:20:08.255Z,21.08
2022-11-23T18:22:35.144Z,21.73
2022-11-23T18:25:01.949Z,20.95
2022-11-23T18:27:29.816Z,21.52
2022-11-23T18:29:56.557Z,21.45
2022-11-23T18:32:23.118Z,20.42
2022-11-23T18:34:49.676Z,20.45
2022-11-23T18:37:16.398Z,19.60
2022-11-23T18:39:42.932Z,19.83
2022-11-23T18:42:10.016Z,19.85
2022-11-23T18:47:03.039Z,19.20
2022-11-23T18:49:29.579Z,19.35
2022-11-23T18:51:56.123Z,18.80
2022-11-23T18:54:22.611Z,18.10
2022-11-23T18:56:49.152Z,18.35
2022-11-23T18:59:50.122Z,22.00
2022-11-23T19:02:02.298Z,21.83
2022-11-23T19:04:32.499Z,21.92
2022-11-23T19:06:59.038Z,21.65
2022-11-23T19:09:25.492Z,21.92
2022-11-23T19:11:52.003Z,19.13
2022-11-23T19:14:18.537Z,21.15
2022-11-23T19:16:45.079Z,20.80
2022-11-23T19:19:11.700Z,19.25
2022-11-23T19:21:39.186Z,20.05
2022-11-23T19:24:06.675Z,18.85
2022-11-23T19:26:33.252Z,20.08
2022-11-23T19:29:00.149Z,20.75
2022-11-23T19:31:32.217Z,19.65
2022-11-23T19:34:01.284Z,20.60
2022-11-23T19:36:30.119Z,19.23
2022-11-23T19:38:58.206Z,19.88
2022-11-23T19:41:29.793Z,21.58
2022-11-23T19:43:58.919Z,21.20
2022-11-23T19:46:26.306Z,19.48
2022-11-23T19:48:54.872Z,18.77
2022-11-23T19:51:21.480Z,20.10
2022-11-23T19:53:49.350Z,20.02
2022-11-23T19:56:21.727Z,21.35
2022-11-23T19:58:54.768Z,20.80
2022-11-23T20:01:23.496Z,20.60
2022-11-23T20:03:52.147Z,21.23
2022-11-23T20:06:27.259Z,21.60
2022-11-23T20:08:59.120Z,21.52
2022-11-23T20:11:27.425Z,21.92
2022-11-23T20:13:54.850Z,20.13
2022-11-23T20:16:22.423Z,20.30
2022-11-23T20:18:54.647Z,19.92
2022-11-23T20:21:21.129Z,20.90
2022-11-23T20:23:50.307Z,23.80
2022-11-23T20:26:20.238Z,27.73
2022-11-23T20:28:51.337Z,28.50
2022-11-23T20:31:20.860Z,27.57
2022-11-23T20:33:50.600Z,27.98
2022-11-23T20:36:25.217Z,26.77
2022-11-23T20:38:53.157Z,28.42
2022-11-23T20:41:28.075Z,28.75
2022-11-23T20:43:57.788Z,27.27
2022-11-23T20:46:46.109Z,26.70
2022-11-23T20:49:12.201Z,26.40
2022-11-23T20:51:38.879Z,26.00
2022-11-23T20:54:05.472Z,25.15
2022-11-23T20:56:32.410Z,24.92
2022-11-23T20:59:04.228Z,24.90
2022-11-23T21:01:30.872Z,23.50
2022-11-23T21:03:59.300Z,22.02
2022-11-23T21:06:26.834Z,22.30
2022-11-23T21:08:53.786Z,21.15
2022-11-23T21:11:46.175Z,21.63
2022-11-23T21:14:27.147Z,22.45
2022-11-23T21:16:58.961Z,22.58
2022-11-23T21:19:31.021Z,22.77
2022-11-23T21:21:59.248Z,21.00
2022-11-23T21:24:25.968Z,20.35
2022-11-23T21:26:52.661Z,20.98
2022-11-23T21:29:19.484Z,20.80
2022-11-23T21:31:48.408Z,20.73
2022-11-23T21:34:19.092Z,19.50
2022-11-23T21:36:46.044Z,20.02
2022-11-23T21:39:13.741Z,22.13
2022-11-23T21:41:40.334Z,22.90
2022-11-23T21:44:08.445Z,22.67
2022-11-23T21:46:37.206Z,21.17
2022-11-23T21:49:04.713Z,23.80
2022-11-23T21:51:31.363Z,23.85
2022-11-23T21:54:00.522Z,24.58
2022-11-23T21:56:28.321Z,22.85
2022-11-23T21:58:55.614Z,22.88
2022-11-23T22:01:24.925Z,23.15
2022-11-23T22:03:54.293Z,21.02
2022-11-23T22:06:21.333Z,20.58
2022-11-23T22:11:23.588Z,19.67
2022-11-23T22:14:13.606Z,20.10
2022-11-23T22:16:43.902Z,21.98
2022-11-23T22:19:12.625Z,20.15
2022-11-23T22:21:40.857Z,20.55
2022-11-23T22:24:12.621Z,19.97
2022-11-23T22:26:39.223Z,22.95
2022-11-23T22:29:06.855Z,22.50
2022-11-23T22:31:35.120Z,20.48
2022-11-23T22:34:02.996Z,21.63
2022-11-23T22:36:30.176Z,20.95
2022-11-23T22:39:05.427Z,18.87
2022-11-23T22:41:37.538Z,20.48
2022-11-23T22:44:09.271Z,20.80
2022-11-23T22:46:37.656Z,20.50
2022-11-23T22:49:04.668Z,19.63
2022-11-23T22:51:31.366Z,19.20
2022-11-23T22:53:59.890Z,21.65
2022-11-23T22:56:27.871Z,20.60
2022-11-23T22:58:54.743Z,18.98
2022-11-23T23:01:23.418Z,19.25
2022-11-23T23:03:55.732Z,19.08
2022-11-23T23:06:27.577Z,18.77
2022-11-23T23:08:56.467Z,19.55
2022-11-23T23:11:24.194Z,17.92
2022-11-23T23:13:51.903Z,20.88
2022-11-23T23:16:18.981Z,21.20
2022-11-23T23:18:45.690Z,19.20
2022-11-23T23:21:15.051Z,20.48
2022-11-23T23:23:44.063Z,18.47
2022-11-23T23:26:12.025Z,20.92
2022-11-23T23:28:39.282Z,19.92
2022-11-23T23:31:17.231Z,19.65
2022-11-23T23:33:45.575Z,18.95
2022-11-23T23:36:17.847Z,19.70
2022-11-23T23:38:44.524Z,20.70
2022-11-23T23:41:12.451Z,20.63
2022-11-23T23:43:39.810Z,22.55
2022-11-23T23:46:09.679Z,21.35
2022-11-23T23:48:38.806Z,20.98
2022-11-23T23:51:17.675Z,20.33
2022-11-23T23:53:45.121Z,20.43
2022-11-23T23:56:13.555Z,21.30
2022-11-23T23:58:40.147Z,19.55
